sensor_id;sensor_type;location;lat;lon;timestamp;temperature;humidity
10388;DHT22;5240;51.128;4.566;2022-10-16T00:02:26;13.40;99.90
10388;DHT22;5240;51.128;4.566;2022-10-16T00:04:53;13.40;99.90
10388;DHT22;5240;51.128;4.566;2022-10-16T00:07:21;13.40;99.90
10388;DHT22;5240;51.128;4.566;2022-10-16T00:09:48;13.30;99.90
10388;DHT22;5240;51.128;4.566;2022-10-16T00:12:15;13.30;99.90
10388;DHT22;5240;51.128;4.566;2022-10-16T00:14:42;13.30;99.90
10388;DHT22;5240;51.128;4.566;2022-10-16T00:17:09;13.30;99.90
10388;DHT22;5240;51.128;4.566;2022-10-16T00:19:36;13.20;99.90
10388;DHT22;5240;51.128;4.566;2022-10-16T00:22:03;13.30;99.90
10388;DHT22;5240;51.128;4.566;2022-10-16T00:24:31;13.20;99.90
10388;DHT22;5240;51.128;4.566;2022-10-16T00:26:58;13.10;99.90
10388;DHT22;5240;51.128;4.566;2022-10-16T00:29:25;13.10;99.90
10388;DHT22;5240;51.128;4.566;2022-10-16T00:31:52;13.10;99.90
10388;DHT22;5240;51.128;4.566;2022-10-16T00:34:19;13.10;99.90
10388;DHT22;5240;51.128;4.566;2022-10-16T00:36:46;13.10;99.90
10388;DHT22;5240;51.128;4.566;2022-10-16T00:39:13;13.10;99.90
10388;DHT22;5240;51.128;4.566;2022-10-16T00:41:41;13.10;99.90
10388;DHT22;5240;51.128;4.566;2022-10-16T00:44:46;13.10;99.90
10388;DHT22;5240;51.128;4.566;2022-10-16T00:47:19;13.10;99.90
10388;DHT22;5240;51.128;4.566;2022-10-16T00:49:47;13.00;99.90
10388;DHT22;5240;51.128;4.566;2022-10-16T00:52:14;13.00;99.90
10388;DHT22;5240;51.128;4.566;2022-10-16T00:54:41;13.10;99.90
10388;DHT22;5240;51.128;4.566;2022-10-16T00:57:10;13.00;99.90
10388;DHT22;5240;51.128;4.566;2022-10-16T00:59:38;13.00;99.90
10388;DHT22;5240;51.128;4.566;2022-10-16T01:02:09;13.00;99.90
10388;DHT22;5240;51.128;4.566;2022-10-16T01:04:38;13.00;99.90
10388;DHT22;5240;51.128;4.566;2022-10-16T01:07:10;13.00;99.90
10388;DHT22;5240;51.128;4.566;2022-10-16T01:09:49;12.90;99.90
10388;DHT22;5240;51.128;4.566;2022-10-16T01:12:25;12.90;99.90
10388;DHT22;5240;51.128;4.566;2022-10-16T01:14:59;13.00;99.90
10388;DHT22;5240;51.128;4.566;2022-10-16T01:17:31;13.00;99.90
10388;DHT22;5240;51.128;4.566;2022-10-16T01:20:08;12.90;99.90
10388;DHT22;5240;51.128;4.566;2022-10-16T01:23:02;13.00;99.90
10388;DHT22;5240;51.128;4.566;2022-10-16T01:25:46;13.00;99.90
10388;DHT22;5240;51.128;4.566;2022-10-16T01:28:19;13.00;99.90
10388;DHT22;5240;51.128;4.566;2022-10-16T01:30:52;13.00;99.90
10388;DHT22;5240;51.128;4.566;2022-10-16T01:33:24;13.10;99.90
10388;DHT22;5240;51.128;4.566;2022-10-16T01:35:58;13.10;99.90
10388;DHT22;5240;51.128;4.566;2022-10-16T01:38:30;13.10;99.90
10388;DHT22;5240;51.128;4.566;2022-10-16T01:41:02;13.10;99.90
10388;DHT22;5240;51.128;4.566;2022-10-16T01:43:37;13.10;99.90
10388;DHT22;5240;51.128;4.566;2022-10-16T01:46:05;13.00;99.90
10388;DHT22;5240;51.128;4.566;2022-10-16T01:48:34;13.00;99.90
10388;DHT22;5240;51.128;4.566;2022-10-16T01:51:05;12.90;99.90
10388;DHT22;5240;51.128;4.566;2022-10-16T01:53:33;13.00;99.90
10388;DHT22;5240;51.128;4.566;2022-10-16T01:56:02;13.10;99.90
10388;DHT22;5240;51.128;4.566;2022-10-16T01:58:30;13.00;99.90
10388;DHT22;5240;51.128;4.566;2022-10-16T02:01:02;13.00;99.90
10388;DHT22;5240;51.128;4.566;2022-10-16T02:03:29;13.00;99.90
10388;DHT22;5240;51.128;4.566;2022-10-16T02:05:58;13.00;99.90
10388;DHT22;5240;51.128;4.566;2022-10-16T02:08:28;13.00;99.90
10388;DHT22;5240;51.128;4.566;2022-10-16T02:10:57;13.00;99.90
10388;DHT22;5240;51.128;4.566;2022-10-16T02:13:29;13.00;99.90
10388;DHT22;5240;51.128;4.566;2022-10-16T02:15:58;13.00;99.90
10388;DHT22;5240;51.128;4.566;2022-10-16T02:18:26;13.00;99.90
10388;DHT22;5240;51.128;4.566;2022-10-16T02:20:59;13.00;99.90
10388;DHT22;5240;51.128;4.566;2022-10-16T02:23:32;13.00;99.90
10388;DHT22;5240;51.128;4.566;2022-10-16T02:26:03;13.00;99.90
10388;DHT22;5240;51.128;4.566;2022-10-16T02:28:36;13.00;99.90
10388;DHT22;5240;51.128;4.566;2022-10-16T02:31:08;13.00;99.90
10388;DHT22;5240;51.128;4.566;2022-10-16T02:33:40;13.00;99.90
10388;DHT22;5240;51.128;4.566;2022-10-16T02:36:09;13.00;99.90
10388;DHT22;5240;51.128;4.566;2022-10-16T02:38:36;13.00;99.90
10388;DHT22;5240;51.128;4.566;2022-10-16T02:41:04;13.00;99.90
10388;DHT22;5240;51.128;4.566;2022-10-16T02:43:31;13.00;99.90
10388;DHT22;5240;51.128;4.566;2022-10-16T02:45:59;13.00;99.90
10388;DHT22;5240;51.128;4.566;2022-10-16T02:48:26;13.00;99.90
10388;DHT22;5240;51.128;4.566;2022-10-16T02:50:54;13.00;99.90
10388;DHT22;5240;51.128;4.566;2022-10-16T02:53:22;13.10;99.90
10388;DHT22;5240;51.128;4.566;2022-10-16T02:55:49;13.10;99.90
10388;DHT22;5240;51.128;4.566;2022-10-16T02:58:16;13.10;99.90
10388;DHT22;5240;51.128;4.566;2022-10-16T03:00:43;13.10;99.90
10388;DHT22;5240;51.128;4.566;2022-10-16T03:03:10;13.10;99.90
10388;DHT22;5240;51.128;4.566;2022-10-16T03:05:37;13.10;99.90
10388;DHT22;5240;51.128;4.566;2022-10-16T03:08:05;13.10;99.90
10388;DHT22;5240;51.128;4.566;2022-10-16T03:10:32;13.10;99.90
10388;DHT22;5240;51.128;4.566;2022-10-16T03:12:59;13.10;99.90
10388;DHT22;5240;51.128;4.566;2022-10-16T03:15:26;13.10;99.90
10388;DHT22;5240;51.128;4.566;2022-10-16T03:17:54;13.10;99.90
10388;DHT22;5240;51.128;4.566;2022-10-16T03:20:21;13.10;99.90
10388;DHT22;5240;51.128;4.566;2022-10-16T03:22:48;13.10;99.90
10388;DHT22;5240;51.128;4.566;2022-10-16T03:25:16;13.20;99.90
10388;DHT22;5240;51.128;4.566;2022-10-16T03:27:43;13.20;99.90
10388;DHT22;5240;51.128;4.566;2022-10-16T03:30:11;13.20;99.90
10388;DHT22;5240;51.128;4.566;2022-10-16T03:32:38;13.20;99.90
10388;DHT22;5240;51.128;4.566;2022-10-16T03:35:05;13.20;99.90
10388;DHT22;5240;51.128;4.566;2022-10-16T03:37:32;13.20;99.90
10388;DHT22;5240;51.128;4.566;2022-10-16T03:39:59;13.20;99.90
10388;DHT22;5240;51.128;4.566;2022-10-16T03:42:27;13.20;99.90
10388;DHT22;5240;51.128;4.566;2022-10-16T03:44:54;13.30;99.90
10388;DHT22;5240;51.128;4.566;2022-10-16T03:47:21;13.30;99.90
10388;DHT22;5240;51.128;4.566;2022-10-16T03:49:49;13.30;99.90
10388;DHT22;5240;51.128;4.566;2022-10-16T03:52:16;13.30;99.90
10388;DHT22;5240;51.128;4.566;2022-10-16T03:54:43;13.30;99.90
10388;DHT22;5240;51.128;4.566;2022-10-16T03:57:11;13.20;99.90
10388;DHT22;5240;51.128;4.566;2022-10-16T03:59:39;13.20;99.90
10388;DHT22;5240;51.128;4.566;2022-10-16T04:02:06;13.20;99.90
10388;DHT22;5240;51.128;4.566;2022-10-16T04:04:33;13.20;99.90
10388;DHT22;5240;51.128;4.566;2022-10-16T04:07:00;13.20;99.90
10388;DHT22;5240;51.128;4.566;2022-10-16T04:09:27;13.20;99.90
10388;DHT22;5240;51.128;4.566;2022-10-16T04:11:54;13.20;99.90
10388;DHT22;5240;51.128;4.566;2022-10-16T04:14:21;13.20;99.90
10388;DHT22;5240;51.128;4.566;2022-10-16T04:16:49;13.10;99.90
10388;DHT22;5240;51.128;4.566;2022-10-16T04:19:16;13.10;99.90
10388;DHT22;5240;51.128;4.566;2022-10-16T04:21:43;13.10;99.90
10388;DHT22;5240;51.128;4.566;2022-10-16T04:24:10;13.10;99.90
10388;DHT22;5240;51.128;4.566;2022-10-16T04:26:37;13.10;99.90
10388;DHT22;5240;51.128;4.566;2022-10-16T04:29:04;13.10;99.90
10388;DHT22;5240;51.128;4.566;2022-10-16T04:31:32;13.10;99.90
10388;DHT22;5240;51.128;4.566;2022-10-16T04:34:01;13.10;99.90
10388;DHT22;5240;51.128;4.566;2022-10-16T04:36:27;13.10;99.90
10388;DHT22;5240;51.128;4.566;2022-10-16T04:38:54;13.10;99.90
10388;DHT22;5240;51.128;4.566;2022-10-16T04:41:21;13.10;99.90
10388;DHT22;5240;51.128;4.566;2022-10-16T04:43:48;13.10;99.90
10388;DHT22;5240;51.128;4.566;2022-10-16T04:46:15;13.10;99.90
10388;DHT22;5240;51.128;4.566;2022-10-16T04:48:42;13.00;99.90
10388;DHT22;5240;51.128;4.566;2022-10-16T04:51:10;13.00;99.90
10388;DHT22;5240;51.128;4.566;2022-10-16T04:53:37;13.00;99.90
10388;DHT22;5240;51.128;4.566;2022-10-16T04:56:05;13.00;99.90
10388;DHT22;5240;51.128;4.566;2022-10-16T04:58:32;12.90;99.90
10388;DHT22;5240;51.128;4.566;2022-10-16T05:00:58;12.90;99.90
10388;DHT22;5240;51.128;4.566;2022-10-16T05:03:25;12.90;99.90
10388;DHT22;5240;51.128;4.566;2022-10-16T05:05:52;12.90;99.90
10388;DHT22;5240;51.128;4.566;2022-10-16T05:08:21;12.80;99.90
10388;DHT22;5240;51.128;4.566;2022-10-16T05:10:48;12.90;99.90
10388;DHT22;5240;51.128;4.566;2022-10-16T05:13:14;12.80;99.90
10388;DHT22;5240;51.128;4.566;2022-10-16T05:15:41;12.80;99.90
10388;DHT22;5240;51.128;4.566;2022-10-16T05:18:09;12.80;99.90
10388;DHT22;5240;51.128;4.566;2022-10-16T05:20:36;12.80;99.90
10388;DHT22;5240;51.128;4.566;2022-10-16T05:23:03;12.80;99.90
10388;DHT22;5240;51.128;4.566;2022-10-16T05:25:31;12.80;99.90
10388;DHT22;5240;51.128;4.566;2022-10-16T05:27:58;12.70;99.90
10388;DHT22;5240;51.128;4.566;2022-10-16T05:30:25;12.80;99.90
10388;DHT22;5240;51.128;4.566;2022-10-16T05:32:52;12.70;99.90
10388;DHT22;5240;51.128;4.566;2022-10-16T05:35:19;12.70;99.90
10388;DHT22;5240;51.128;4.566;2022-10-16T05:37:47;12.70;99.90
10388;DHT22;5240;51.128;4.566;2022-10-16T05:40:14;12.70;99.90
10388;DHT22;5240;51.128;4.566;2022-10-16T05:42:43;12.60;99.90
10388;DHT22;5240;51.128;4.566;2022-10-16T05:45:11;12.60;99.90
10388;DHT22;5240;51.128;4.566;2022-10-16T05:47:38;12.60;99.90
10388;DHT22;5240;51.128;4.566;2022-10-16T05:50:05;12.60;99.90
10388;DHT22;5240;51.128;4.566;2022-10-16T05:52:32;12.60;99.90
10388;DHT22;5240;51.128;4.566;2022-10-16T05:54:59;12.60;99.90
10388;DHT22;5240;51.128;4.566;2022-10-16T05:57:26;12.60;99.90
10388;DHT22;5240;51.128;4.566;2022-10-16T05:59:54;12.60;99.90
10388;DHT22;5240;51.128;4.566;2022-10-16T06:02:21;12.60;99.90
10388;DHT22;5240;51.128;4.566;2022-10-16T06:04:48;12.60;99.90
10388;DHT22;5240;51.128;4.566;2022-10-16T06:07:15;12.50;99.90
10388;DHT22;5240;51.128;4.566;2022-10-16T06:09:42;12.60;99.90
10388;DHT22;5240;51.128;4.566;2022-10-16T06:12:09;12.60;99.90
10388;DHT22;5240;51.128;4.566;2022-10-16T06:14:36;12.50;99.90
10388;DHT22;5240;51.128;4.566;2022-10-16T06:17:04;12.60;99.90
10388;DHT22;5240;51.128;4.566;2022-10-16T06:19:31;12.60;99.90
10388;DHT22;5240;51.128;4.566;2022-10-16T06:21:58;12.60;99.90
10388;DHT22;5240;51.128;4.566;2022-10-16T06:24:25;12.60;99.90
10388;DHT22;5240;51.128;4.566;2022-10-16T06:26:52;12.70;99.90
10388;DHT22;5240;51.128;4.566;2022-10-16T06:29:19;12.70;99.90
10388;DHT22;5240;51.128;4.566;2022-10-16T06:31:46;12.70;99.90
10388;DHT22;5240;51.128;4.566;2022-10-16T06:34:15;12.70;99.90
10388;DHT22;5240;51.128;4.566;2022-10-16T06:36:41;12.80;99.90
10388;DHT22;5240;51.128;4.566;2022-10-16T06:39:09;12.80;99.90
10388;DHT22;5240;51.128;4.566;2022-10-16T06:41:36;12.80;99.90
10388;DHT22;5240;51.128;4.566;2022-10-16T06:44:05;12.80;99.90
10388;DHT22;5240;51.128;4.566;2022-10-16T06:46:33;12.80;99.90
10388;DHT22;5240;51.128;4.566;2022-10-16T06:49:00;12.80;99.90
10388;DHT22;5240;51.128;4.566;2022-10-16T06:51:29;12.80;99.90
10388;DHT22;5240;51.128;4.566;2022-10-16T06:53:57;12.90;99.90
10388;DHT22;5240;51.128;4.566;2022-10-16T06:56:26;12.90;99.90
10388;DHT22;5240;51.128;4.566;2022-10-16T06:58:53;12.90;99.90
10388;DHT22;5240;51.128;4.566;2022-10-16T07:01:22;12.90;99.90
10388;DHT22;5240;51.128;4.566;2022-10-16T07:03:50;12.90;99.90
10388;DHT22;5240;51.128;4.566;2022-10-16T07:06:19;12.90;99.90
10388;DHT22;5240;51.128;4.566;2022-10-16T07:08:48;12.90;99.90
10388;DHT22;5240;51.128;4.566;2022-10-16T07:11:17;13.00;99.90
10388;DHT22;5240;51.128;4.566;2022-10-16T07:13:45;13.10;99.90
10388;DHT22;5240;51.128;4.566;2022-10-16T07:16:14;13.10;99.90
10388;DHT22;5240;51.128;4.566;2022-10-16T07:18:42;13.10;99.90
10388;DHT22;5240;51.128;4.566;2022-10-16T07:21:12;13.20;99.90
10388;DHT22;5240;51.128;4.566;2022-10-16T07:23:40;13.30;99.90
10388;DHT22;5240;51.128;4.566;2022-10-16T07:26:09;13.40;99.90
10388;DHT22;5240;51.128;4.566;2022-10-16T07:28:37;13.40;99.90
10388;DHT22;5240;51.128;4.566;2022-10-16T07:31:06;13.50;99.90
10388;DHT22;5240;51.128;4.566;2022-10-16T07:33:34;13.50;99.90
10388;DHT22;5240;51.128;4.566;2022-10-16T07:36:01;13.50;99.90
10388;DHT22;5240;51.128;4.566;2022-10-16T07:38:28;13.70;99.90
10388;DHT22;5240;51.128;4.566;2022-10-16T07:40:57;13.90;99.90
10388;DHT22;5240;51.128;4.566;2022-10-16T07:43:27;13.90;99.90
10388;DHT22;5240;51.128;4.566;2022-10-16T07:45:54;13.90;99.90
10388;DHT22;5240;51.128;4.566;2022-10-16T07:48:22;14.00;99.90
10388;DHT22;5240;51.128;4.566;2022-10-16T07:50:49;14.30;99.90
10388;DHT22;5240;51.128;4.566;2022-10-16T07:53:16;14.70;99.90
10388;DHT22;5240;51.128;4.566;2022-10-16T07:55:43;15.10;99.90
10388;DHT22;5240;51.128;4.566;2022-10-16T07:58:10;15.60;99.90
10388;DHT22;5240;51.128;4.566;2022-10-16T08:00:39;15.80;99.90
10388;DHT22;5240;51.128;4.566;2022-10-16T08:03:06;16.30;99.90
10388;DHT22;5240;51.128;4.566;2022-10-16T08:05:33;16.30;99.90
10388;DHT22;5240;51.128;4.566;2022-10-16T08:08:01;16.50;99.90
10388;DHT22;5240;51.128;4.566;2022-10-16T08:10:29;16.50;99.90
10388;DHT22;5240;51.128;4.566;2022-10-16T08:12:57;16.70;99.90
10388;DHT22;5240;51.128;4.566;2022-10-16T08:15:25;16.80;99.90
10388;DHT22;5240;51.128;4.566;2022-10-16T08:17:58;16.70;99.90
10388;DHT22;5240;51.128;4.566;2022-10-16T08:20:26;16.40;99.90
10388;DHT22;5240;51.128;4.566;2022-10-16T08:22:53;16.10;99.90
10388;DHT22;5240;51.128;4.566;2022-10-16T08:25:20;16.20;99.90
10388;DHT22;5240;51.128;4.566;2022-10-16T08:27:48;16.60;99.90
10388;DHT22;5240;51.128;4.566;2022-10-16T08:30:16;16.80;99.90
10388;DHT22;5240;51.128;4.566;2022-10-16T08:32:43;16.90;99.90
10388;DHT22;5240;51.128;4.566;2022-10-16T08:35:13;17.20;99.90
10388;DHT22;5240;51.128;4.566;2022-10-16T08:37:40;17.30;99.90
10388;DHT22;5240;51.128;4.566;2022-10-16T08:40:16;17.60;99.90
10388;DHT22;5240;51.128;4.566;2022-10-16T08:42:56;18.20;99.90
10388;DHT22;5240;51.128;4.566;2022-10-16T08:45:39;18.80;99.90
10388;DHT22;5240;51.128;4.566;2022-10-16T08:48:14;19.00;99.90
10388;DHT22;5240;51.128;4.566;2022-10-16T08:50:45;19.40;99.90
10388;DHT22;5240;51.128;4.566;2022-10-16T08:53:17;19.60;99.90
10388;DHT22;5240;51.128;4.566;2022-10-16T08:55:48;19.60;99.90
10388;DHT22;5240;51.128;4.566;2022-10-16T08:58:18;19.40;99.90
10388;DHT22;5240;51.128;4.566;2022-10-16T09:00:47;19.30;99.90
10388;DHT22;5240;51.128;4.566;2022-10-16T09:03:23;19.10;99.90
10388;DHT22;5240;51.128;4.566;2022-10-16T09:06:02;19.50;99.90
10388;DHT22;5240;51.128;4.566;2022-10-16T09:08:38;19.90;99.90
10388;DHT22;5240;51.128;4.566;2022-10-16T09:11:13;20.20;99.90
10388;DHT22;5240;51.128;4.566;2022-10-16T09:13:49;20.40;99.90
10388;DHT22;5240;51.128;4.566;2022-10-16T09:16:19;20.70;99.90
10388;DHT22;5240;51.128;4.566;2022-10-16T09:18:57;21.20;99.90
10388;DHT22;5240;51.128;4.566;2022-10-16T09:21:29;21.60;99.90
10388;DHT22;5240;51.128;4.566;2022-10-16T09:23:58;22.00;99.90
10388;DHT22;5240;51.128;4.566;2022-10-16T09:26:26;21.90;99.90
10388;DHT22;5240;51.128;4.566;2022-10-16T09:28:53;21.30;99.90
10388;DHT22;5240;51.128;4.566;2022-10-16T09:31:22;21.30;99.90
10388;DHT22;5240;51.128;4.566;2022-10-16T09:33:53;21.60;99.90
10388;DHT22;5240;51.128;4.566;2022-10-16T09:36:22;22.30;99.90
10388;DHT22;5240;51.128;4.566;2022-10-16T09:39:02;22.60;99.90
10388;DHT22;5240;51.128;4.566;2022-10-16T09:41:29;22.20;99.90
10388;DHT22;5240;51.128;4.566;2022-10-16T09:43:57;22.40;99.90
10388;DHT22;5240;51.128;4.566;2022-10-16T09:46:27;22.40;99.90
10388;DHT22;5240;51.128;4.566;2022-10-16T09:48:57;22.90;99.90
10388;DHT22;5240;51.128;4.566;2022-10-16T09:51:26;23.10;99.90
10388;DHT22;5240;51.128;4.566;2022-10-16T09:53:57;23.40;99.90
10388;DHT22;5240;51.128;4.566;2022-10-16T09:56:26;23.70;99.90
10388;DHT22;5240;51.128;4.566;2022-10-16T09:58:58;23.40;99.90
10388;DHT22;5240;51.128;4.566;2022-10-16T10:01:30;22.70;99.90
10388;DHT22;5240;51.128;4.566;2022-10-16T10:03:58;22.00;99.90
10388;DHT22;5240;51.128;4.566;2022-10-16T10:06:31;21.10;99.90
10388;DHT22;5240;51.128;4.566;2022-10-16T10:09:04;20.50;99.90
10388;DHT22;5240;51.128;4.566;2022-10-16T10:11:48;19.90;99.90
10388;DHT22;5240;51.128;4.566;2022-10-16T10:14:24;19.30;99.90
10388;DHT22;5240;51.128;4.566;2022-10-16T10:17:01;18.90;99.90
10388;DHT22;5240;51.128;4.566;2022-10-16T10:19:28;18.80;99.90
10388;DHT22;5240;51.128;4.566;2022-10-16T10:21:55;18.80;99.90
10388;DHT22;5240;51.128;4.566;2022-10-16T10:24:23;18.80;99.90
10388;DHT22;5240;51.128;4.566;2022-10-16T10:26:54;18.70;99.90
10388;DHT22;5240;51.128;4.566;2022-10-16T10:29:46;18.60;99.90
10388;DHT22;5240;51.128;4.566;2022-10-16T10:32:23;18.50;99.90
10388;DHT22;5240;51.128;4.566;2022-10-16T10:35:13;18.50;99.90
10388;DHT22;5240;51.128;4.566;2022-10-16T10:37:51;18.40;99.90
10388;DHT22;5240;51.128;4.566;2022-10-16T10:40:32;18.20;99.90
10388;DHT22;5240;51.128;4.566;2022-10-16T10:43:11;18.00;99.90
10388;DHT22;5240;51.128;4.566;2022-10-16T10:45:44;18.00;99.90
10388;DHT22;5240;51.128;4.566;2022-10-16T10:48:26;18.00;99.90
10388;DHT22;5240;51.128;4.566;2022-10-16T10:50:59;18.00;99.90
10388;DHT22;5240;51.128;4.566;2022-10-16T10:53:42;18.10;99.90
10388;DHT22;5240;51.128;4.566;2022-10-16T10:56:29;18.20;99.90
10388;DHT22;5240;51.128;4.566;2022-10-16T10:59:15;18.20;99.90
10388;DHT22;5240;51.128;4.566;2022-10-16T11:01:50;18.30;99.90
10388;DHT22;5240;51.128;4.566;2022-10-16T11:04:42;18.70;99.90
10388;DHT22;5240;51.128;4.566;2022-10-16T11:07:17;18.90;99.90
10388;DHT22;5240;51.128;4.566;2022-10-16T11:09:48;19.00;99.90
10388;DHT22;5240;51.128;4.566;2022-10-16T11:12:20;19.00;99.90
10388;DHT22;5240;51.128;4.566;2022-10-16T11:14:52;18.90;99.90
10388;DHT22;5240;51.128;4.566;2022-10-16T11:17:25;18.70;99.90
10388;DHT22;5240;51.128;4.566;2022-10-16T11:19:56;18.70;99.90
10388;DHT22;5240;51.128;4.566;2022-10-16T11:22:29;18.60;99.90
10388;DHT22;5240;51.128;4.566;2022-10-16T11:25:02;18.60;99.90
10388;DHT22;5240;51.128;4.566;2022-10-16T11:27:37;18.60;99.90
10388;DHT22;5240;51.128;4.566;2022-10-16T11:30:13;18.60;99.90
10388;DHT22;5240;51.128;4.566;2022-10-16T11:32:50;18.60;99.90
10388;DHT22;5240;51.128;4.566;2022-10-16T11:35:22;18.50;99.90
10388;DHT22;5240;51.128;4.566;2022-10-16T11:37:52;18.40;99.90
10388;DHT22;5240;51.128;4.566;2022-10-16T11:40:26;18.30;99.90
10388;DHT22;5240;51.128;4.566;2022-10-16T11:43:00;18.20;99.90
10388;DHT22;5240;51.128;4.566;2022-10-16T11:45:33;18.10;99.90
10388;DHT22;5240;51.128;4.566;2022-10-16T11:48:07;18.20;99.90
10388;DHT22;5240;51.128;4.566;2022-10-16T11:50:39;18.20;99.90
10388;DHT22;5240;51.128;4.566;2022-10-16T11:53:16;18.30;99.90
10388;DHT22;5240;51.128;4.566;2022-10-16T11:55:45;18.30;99.90
10388;DHT22;5240;51.128;4.566;2022-10-16T11:58:20;18.30;99.90
10388;DHT22;5240;51.128;4.566;2022-10-16T12:00:57;18.40;99.90
10388;DHT22;5240;51.128;4.566;2022-10-16T12:03:29;18.40;99.90
10388;DHT22;5240;51.128;4.566;2022-10-16T12:06:16;18.40;99.90
10388;DHT22;5240;51.128;4.566;2022-10-16T12:08:49;18.30;99.90
10388;DHT22;5240;51.128;4.566;2022-10-16T12:11:30;18.40;99.90
10388;DHT22;5240;51.128;4.566;2022-10-16T12:14:18;18.50;99.90
10388;DHT22;5240;51.128;4.566;2022-10-16T12:16:54;18.60;99.90
10388;DHT22;5240;51.128;4.566;2022-10-16T12:19:22;18.70;99.90
10388;DHT22;5240;51.128;4.566;2022-10-16T12:21:51;18.80;99.90
10388;DHT22;5240;51.128;4.566;2022-10-16T12:24:24;18.70;99.90
10388;DHT22;5240;51.128;4.566;2022-10-16T12:26:54;18.60;99.90
10388;DHT22;5240;51.128;4.566;2022-10-16T12:29:32;18.70;99.90
10388;DHT22;5240;51.128;4.566;2022-10-16T12:32:01;18.90;99.90
10388;DHT22;5240;51.128;4.566;2022-10-16T12:34:31;19.10;99.90
10388;DHT22;5240;51.128;4.566;2022-10-16T12:37:13;19.10;99.90
10388;DHT22;5240;51.128;4.566;2022-10-16T12:39:42;19.00;99.90
10388;DHT22;5240;51.128;4.566;2022-10-16T12:42:30;19.00;99.90
10388;DHT22;5240;51.128;4.566;2022-10-16T12:45:01;19.20;99.90
10388;DHT22;5240;51.128;4.566;2022-10-16T12:47:48;19.30;99.90
10388;DHT22;5240;51.128;4.566;2022-10-16T12:50:31;19.40;99.90
10388;DHT22;5240;51.128;4.566;2022-10-16T12:52:59;19.40;99.90
10388;DHT22;5240;51.128;4.566;2022-10-16T12:55:26;19.40;99.90
10388;DHT22;5240;51.128;4.566;2022-10-16T13:00:57;19.40;99.90
10388;DHT22;5240;51.128;4.566;2022-10-16T13:03:46;19.40;99.90
10388;DHT22;5240;51.128;4.566;2022-10-16T13:06:30;19.50;99.90
10388;DHT22;5240;51.128;4.566;2022-10-16T13:09:30;19.50;99.90
10388;DHT22;5240;51.128;4.566;2022-10-16T13:12:19;19.40;99.90
10388;DHT22;5240;51.128;4.566;2022-10-16T13:14:57;19.40;99.90
10388;DHT22;5240;51.128;4.566;2022-10-16T13:17:36;19.50;99.90
10388;DHT22;5240;51.128;4.566;2022-10-16T13:20:14;19.60;99.90
10388;DHT22;5240;51.128;4.566;2022-10-16T13:22:51;19.60;99.90
10388;DHT22;5240;51.128;4.566;2022-10-16T13:25:23;19.60;99.90
10388;DHT22;5240;51.128;4.566;2022-10-16T13:27:56;19.80;99.90
10388;DHT22;5240;51.128;4.566;2022-10-16T13:30:25;19.90;99.90
10388;DHT22;5240;51.128;4.566;2022-10-16T13:33:00;19.90;99.90
10388;DHT22;5240;51.128;4.566;2022-10-16T13:35:30;19.80;99.90
10388;DHT22;5240;51.128;4.566;2022-10-16T13:38:05;19.80;99.90
10388;DHT22;5240;51.128;4.566;2022-10-16T13:40:32;19.50;99.90
10388;DHT22;5240;51.128;4.566;2022-10-16T13:43:01;19.50;99.90
10388;DHT22;5240;51.128;4.566;2022-10-16T13:45:28;19.40;99.90
10388;DHT22;5240;51.128;4.566;2022-10-16T13:48:09;19.40;99.90
10388;DHT22;5240;51.128;4.566;2022-10-16T13:50:37;19.40;99.90
10388;DHT22;5240;51.128;4.566;2022-10-16T13:53:05;19.50;99.90
10388;DHT22;5240;51.128;4.566;2022-10-16T13:55:32;19.50;99.90
10388;DHT22;5240;51.128;4.566;2022-10-16T13:58:13;19.60;99.90
10388;DHT22;5240;51.128;4.566;2022-10-16T14:00:52;19.60;99.90
10388;DHT22;5240;51.128;4.566;2022-10-16T14:03:21;19.50;99.90
10388;DHT22;5240;51.128;4.566;2022-10-16T14:05:50;19.40;99.90
10388;DHT22;5240;51.128;4.566;2022-10-16T14:08:18;19.40;99.90
10388;DHT22;5240;51.128;4.566;2022-10-16T14:10:49;19.30;99.90
10388;DHT22;5240;51.128;4.566;2022-10-16T14:13:19;19.20;99.90
10388;DHT22;5240;51.128;4.566;2022-10-16T14:15:49;19.10;99.90
10388;DHT22;5240;51.128;4.566;2022-10-16T14:18:19;19.10;99.90
10388;DHT22;5240;51.128;4.566;2022-10-16T14:20:49;19.10;99.90
10388;DHT22;5240;51.128;4.566;2022-10-16T14:23:21;19.10;99.90
10388;DHT22;5240;51.128;4.566;2022-10-16T14:25:49;19.10;99.90
10388;DHT22;5240;51.128;4.566;2022-10-16T14:28:17;19.10;99.90
10388;DHT22;5240;51.128;4.566;2022-10-16T14:30:53;19.20;99.90
10388;DHT22;5240;51.128;4.566;2022-10-16T14:33:23;19.30;99.90
10388;DHT22;5240;51.128;4.566;2022-10-16T14:36:03;19.30;99.90
10388;DHT22;5240;51.128;4.566;2022-10-16T14:38:32;19.30;99.90
10388;DHT22;5240;51.128;4.566;2022-10-16T14:40:59;19.20;99.90
10388;DHT22;5240;51.128;4.566;2022-10-16T14:43:31;19.20;99.90
10388;DHT22;5240;51.128;4.566;2022-10-16T14:45:59;19.10;99.90
10388;DHT22;5240;51.128;4.566;2022-10-16T14:48:26;19.10;99.90
10388;DHT22;5240;51.128;4.566;2022-10-16T14:50:53;18.90;99.90
10388;DHT22;5240;51.128;4.566;2022-10-16T14:53:22;18.80;99.90
10388;DHT22;5240;51.128;4.566;2022-10-16T14:55:49;18.80;99.90
10388;DHT22;5240;51.128;4.566;2022-10-16T14:58:19;18.80;99.90
10388;DHT22;5240;51.128;4.566;2022-10-16T15:00:46;18.70;99.90
10388;DHT22;5240;51.128;4.566;2022-10-16T15:03:14;18.70;99.90
10388;DHT22;5240;51.128;4.566;2022-10-16T15:05:44;18.60;99.90
10388;DHT22;5240;51.128;4.566;2022-10-16T15:08:12;18.50;99.90
10388;DHT22;5240;51.128;4.566;2022-10-16T15:10:43;18.40;99.90
10388;DHT22;5240;51.128;4.566;2022-10-16T15:13:12;18.40;99.90
10388;DHT22;5240;51.128;4.566;2022-10-16T15:15:42;18.40;99.90
10388;DHT22;5240;51.128;4.566;2022-10-16T15:18:09;18.40;99.90
10388;DHT22;5240;51.128;4.566;2022-10-16T15:20:38;18.40;99.90
10388;DHT22;5240;51.128;4.566;2022-10-16T15:23:09;18.50;99.90
10388;DHT22;5240;51.128;4.566;2022-10-16T15:25:38;18.50;99.90
10388;DHT22;5240;51.128;4.566;2022-10-16T15:28:08;18.50;99.90
10388;DHT22;5240;51.128;4.566;2022-10-16T15:30:36;18.50;99.90
10388;DHT22;5240;51.128;4.566;2022-10-16T15:33:11;18.40;99.90
10388;DHT22;5240;51.128;4.566;2022-10-16T15:35:39;18.40;99.90
10388;DHT22;5240;51.128;4.566;2022-10-16T15:38:06;18.40;99.90
10388;DHT22;5240;51.128;4.566;2022-10-16T15:40:33;18.40;99.90
10388;DHT22;5240;51.128;4.566;2022-10-16T15:43:00;18.30;99.90
10388;DHT22;5240;51.128;4.566;2022-10-16T15:45:28;18.30;99.90
10388;DHT22;5240;51.128;4.566;2022-10-16T15:47:55;18.30;99.90
10388;DHT22;5240;51.128;4.566;2022-10-16T15:50:22;18.20;99.90
10388;DHT22;5240;51.128;4.566;2022-10-16T15:52:50;18.10;99.90
10388;DHT22;5240;51.128;4.566;2022-10-16T15:55:17;18.00;99.90
10388;DHT22;5240;51.128;4.566;2022-10-16T15:57:45;18.00;99.90
10388;DHT22;5240;51.128;4.566;2022-10-16T16:00:14;17.90;99.90
10388;DHT22;5240;51.128;4.566;2022-10-16T16:02:43;17.90;99.90
10388;DHT22;5240;51.128;4.566;2022-10-16T16:05:11;17.80;99.90
10388;DHT22;5240;51.128;4.566;2022-10-16T16:07:39;17.80;99.90
10388;DHT22;5240;51.128;4.566;2022-10-16T16:10:08;17.80;99.90